Time;durP1;ratioP1;P1;durP2;ratioP2;P2;SDS_P1;SDS_P2;PMS_P1;PMS_P2;Temp;Humidity;BMP_temperature;BMP_pressure;BME280_temperature;BME280_humidity;BME280_pressure;Samples;Min_cycle;Max_cycle;Signal;HPM_P1;HPM_P2
2022/06/28 00:01:17;;;;;;;;;;;13.20;99.90;;;;;;4940848;28;29143;-67
2022/06/28 00:03:44;;;;;;;;;;;13.20;99.90;;;;;;4939032;28;26233;-67
2022/06/28 00:06:13;;;;;;;;;;;13.10;99.90;;;;;;4940386;28;29093;-67
2022/06/28 00:08:40;;;;;;;;;;;12.90;99.90;;;;;;4913820;28;25078;-67
2022/06/28 00:11:07;;;;;;;;;;;12.80;99.90;;;;;;4940260;28;26141;-67
2022/06/28 00:13:33;;;;;;;;;;;12.80;99.90;;;;;;4934045;28;29188;-67
2022/06/28 00:16:06;;;;;;;;;;;12.70;99.90;;;;;;4937269;28;27111;-67
2022/06/28 00:18:37;;;;;;;;;;;12.60;99.90;;;;;;4939432;28;25064;-67
2022/06/28 00:21:06;;;;;;;;;;;12.60;99.90;;;;;;4951705;28;29167;-68
2022/06/28 00:23:36;;;;;;;;;;;12.50;99.90;;;;;;4935436;28;29090;-67
2022/06/28 00:26:04;;;;;;;;;;;12.40;99.90;;;;;;4937108;28;25158;-67
2022/06/28 00:28:30;;;;;;;;;;;12.30;99.90;;;;;;4938548;28;29124;-67
2022/06/28 00:31:00;;;;;;;;;;;12.20;99.90;;;;;;4936593;28;26150;-67
2022/06/28 00:33:27;;;;;;;;;;;12.10;99.90;;;;;;4924452;28;26069;-67
2022/06/28 00:35:54;;;;;;;;;;;11.90;99.90;;;;;;4938837;28;26134;-67
2022/06/28 00:38:20;;;;;;;;;;;12.00;99.90;;;;;;4933733;28;29139;-67
2022/06/28 00:40:48;;;;;;;;;;;12.00;99.90;;;;;;4940399;28;28075;-67
2022/06/28 00:43:16;;;;;;;;;;;12.00;99.90;;;;;;4941355;28;27154;-67
2022/06/28 00:45:43;;;;;;;;;;;12.00;99.90;;;;;;4938818;28;27066;-67
2022/06/28 00:48:14;;;;;;;;;;;12.00;99.90;;;;;;4940680;28;29093;-67
2022/06/28 00:50:47;;;;;;;;;;;11.90;99.90;;;;;;4939055;28;27063;-68
2022/06/28 00:53:15;;;;;;;;;;;11.90;99.90;;;;;;4928682;28;29100;-68
2022/06/28 00:55:44;;;;;;;;;;;11.90;99.90;;;;;;4936089;28;27103;-68
2022/06/28 00:58:12;;;;;;;;;;;11.90;99.90;;;;;;4938097;28;28124;-68
2022/06/28 01:00:41;;;;;;;;;;;11.90;99.90;;;;;;4915072;28;29095;-67
2022/06/28 01:03:11;;;;;;;;;;;11.80;99.90;;;;;;4931825;28;27099;-67
2022/06/28 01:05:40;;;;;;;;;;;11.70;99.90;;;;;;4936855;28;28073;-68
2022/06/28 01:08:07;;;;;;;;;;;11.70;99.90;;;;;;4941906;28;25177;-68
2022/06/28 01:10:34;;;;;;;;;;;11.70;99.90;;;;;;4936161;28;25069;-70
2022/06/28 01:13:01;;;;;;;;;;;11.70;99.90;;;;;;4935573;28;27159;-68
2022/06/28 01:15:28;;;;;;;;;;;11.60;99.90;;;;;;4936153;28;29071;-68
2022/06/28 01:17:55;;;;;;;;;;;11.60;99.90;;;;;;4941443;28;27161;-68
2022/06/28 01:20:22;;;;;;;;;;;11.50;99.90;;;;;;4919448;28;27065;-68
2022/06/28 01:22:50;;;;;;;;;;;11.40;99.90;;;;;;4940214;28;26082;-68
2022/06/28 01:25:16;;;;;;;;;;;11.40;99.90;;;;;;4939372;28;25068;-68
2022/06/28 01:27:43;;;;;;;;;;;11.40;99.90;;;;;;4939177;28;29094;-68
2022/06/28 01:30:10;;;;;;;;;;;11.30;99.90;;;;;;4939248;28;28064;-68
2022/06/28 01:32:37;;;;;;;;;;;11.30;99.90;;;;;;4928939;28;26154;-68
2022/06/28 01:35:04;;;;;;;;;;;11.30;99.90;;;;;;4923976;28;29220;-68
2022/06/28 01:37:31;;;;;;;;;;;11.20;99.90;;;;;;4849226;28;2567203;-68
2022/06/28 01:39:58;;;;;;;;;;;11.20;99.90;;;;;;4941232;28;26153;-68
2022/06/28 01:42:26;;;;;;;;;;;11.20;99.90;;;;;;4939472;28;25162;-68
2022/06/28 01:44:52;;;;;;;;;;;11.20;99.90;;;;;;4940212;28;29189;-68
2022/06/28 01:47:20;;;;;;;;;;;11.20;99.90;;;;;;4939328;28;25062;-68
2022/06/28 01:49:47;;;;;;;;;;;11.10;99.90;;;;;;4955936;28;26145;-68
2022/06/28 01:52:13;;;;;;;;;;;11.00;99.90;;;;;;4940250;28;29098;-68
2022/06/28 01:54:40;;;;;;;;;;;10.90;99.90;;;;;;4935400;28;25138;-67
2022/06/28 01:57:07;;;;;;;;;;;10.80;99.90;;;;;;4927249;28;26138;-68
2022/06/28 01:59:34;;;;;;;;;;;10.80;99.90;;;;;;4950809;28;26085;-68
2022/06/28 02:02:00;;;;;;;;;;;10.80;99.90;;;;;;4939145;28;27151;-68
2022/06/28 02:04:27;;;;;;;;;;;10.80;99.90;;;;;;4938179;28;28120;-68
2022/06/28 02:06:55;;;;;;;;;;;10.70;99.90;;;;;;4947260;28;26068;-68
2022/06/28 02:09:22;;;;;;;;;;;10.70;99.90;;;;;;4931439;28;27056;-68
2022/06/28 02:11:49;;;;;;;;;;;10.60;99.90;;;;;;4938585;28;26056;-68
2022/06/28 02:14:16;;;;;;;;;;;10.60;99.90;;;;;;4931937;28;28105;-68
2022/06/28 02:16:43;;;;;;;;;;;10.60;99.90;;;;;;4931131;28;28072;-68
2022/06/28 02:19:10;;;;;;;;;;;10.60;99.90;;;;;;4935467;28;25055;-68
2022/06/28 02:21:37;;;;;;;;;;;10.60;99.90;;;;;;4925472;28;28099;-68
2022/06/28 02:24:04;;;;;;;;;;;10.70;99.90;;;;;;4933181;28;25057;-68
2022/06/28 02:26:32;;;;;;;;;;;10.70;99.90;;;;;;4936018;28;28073;-68
2022/06/28 02:28:59;;;;;;;;;;;10.70;99.90;;;;;;4937483;28;28122;-68
2022/06/28 02:31:26;;;;;;;;;;;10.60;99.90;;;;;;4938968;28;26151;-68
2022/06/28 02:33:53;;;;;;;;;;;10.50;99.90;;;;;;4938390;28;26162;-68
2022/06/28 02:41:53;;;;;;;;;;;10.30;99.90;;;;;;4933159;28;27139;-68
2022/06/28 02:44:22;;;;;;;;;;;10.40;99.90;;;;;;4938160;28;26058;-68
2022/06/28 02:46:49;;;;;;;;;;;10.40;99.90;;;;;;4927877;28;27120;-67
2022/06/28 02:49:16;;;;;;;;;;;10.50;99.90;;;;;;4933996;28;27137;-67
2022/06/28 02:51:42;;;;;;;;;;;10.50;99.90;;;;;;4933100;28;25157;-68
2022/06/28 02:54:09;;;;;;;;;;;10.60;99.90;;;;;;4927005;28;28137;-68
2022/06/28 02:56:37;;;;;;;;;;;10.70;99.90;;;;;;4930733;28;29107;-68
2022/06/28 02:59:04;;;;;;;;;;;10.80;99.90;;;;;;4937222;28;29133;-68
2022/06/28 03:01:31;;;;;;;;;;;10.70;99.90;;;;;;4937777;28;26242;-68
2022/06/28 03:03:58;;;;;;;;;;;10.80;99.90;;;;;;4937876;28;25071;-68
2022/06/28 03:06:31;;;;;;;;;;;10.80;99.90;;;;;;4935981;28;26143;-68
2022/06/28 03:09:00;;;;;;;;;;;10.90;99.90;;;;;;4936135;28;27158;-68
2022/06/28 03:11:27;;;;;;;;;;;10.90;99.90;;;;;;4945488;28;25132;-68
2022/06/28 03:13:54;;;;;;;;;;;10.90;99.90;;;;;;4932066;28;28159;-68
2022/06/28 03:16:23;;;;;;;;;;;10.90;99.90;;;;;;4937817;28;29120;-68
2022/06/28 03:18:50;;;;;;;;;;;10.80;99.90;;;;;;4939691;28;25057;-68
2022/06/28 03:21:18;;;;;;;;;;;10.70;99.90;;;;;;4922065;28;29150;-68
2022/06/28 03:23:44;;;;;;;;;;;10.60;99.90;;;;;;4922273;28;25200;-69
2022/06/28 03:26:11;;;;;;;;;;;10.60;99.90;;;;;;4937023;28;27072;-68
2022/06/28 03:28:38;;;;;;;;;;;10.50;99.90;;;;;;4936479;28;25118;-68
2022/06/28 03:31:07;;;;;;;;;;;10.40;99.90;;;;;;4927425;28;30085;-68
2022/06/28 03:33:38;;;;;;;;;;;10.40;99.90;;;;;;4931848;28;30083;-68
2022/06/28 03:36:04;;;;;;;;;;;10.40;99.90;;;;;;4928340;28;28101;-68
2022/06/28 03:38:31;;;;;;;;;;;10.50;99.90;;;;;;4933056;28;28066;-68
2022/06/28 03:40:58;;;;;;;;;;;10.50;99.90;;;;;;4936895;28;29063;-68
2022/06/28 03:43:25;;;;;;;;;;;10.40;99.90;;;;;;4940138;28;29114;-68
2022/06/28 03:45:52;;;;;;;;;;;10.40;99.90;;;;;;4936128;28;28156;-68
2022/06/28 03:48:19;;;;;;;;;;;10.40;99.90;;;;;;4931481;28;26380;-68
2022/06/28 03:50:45;;;;;;;;;;;10.40;99.90;;;;;;4933477;28;30100;-68
2022/06/28 03:53:12;;;;;;;;;;;10.40;99.90;;;;;;4933027;28;25074;-68
2022/06/28 03:55:39;;;;;;;;;;;10.40;99.90;;;;;;4935838;28;37120;-68
2022/06/28 03:58:08;;;;;;;;;;;10.50;99.90;;;;;;4931221;28;29103;-69
2022/06/28 04:00:35;;;;;;;;;;;10.50;99.90;;;;;;4936055;28;27097;-68
2022/06/28 04:03:02;;;;;;;;;;;10.60;99.90;;;;;;4928945;28;32111;-68
2022/06/28 04:05:29;;;;;;;;;;;10.70;99.90;;;;;;4934204;28;26151;-68
2022/06/28 04:07:55;;;;;;;;;;;10.70;99.90;;;;;;4929612;28;28097;-68
2022/06/28 04:10:22;;;;;;;;;;;10.80;99.90;;;;;;4928644;28;32145;-68
2022/06/28 04:12:49;;;;;;;;;;;10.80;99.90;;;;;;4931138;28;25075;-68
2022/06/28 04:15:16;;;;;;;;;;;10.90;99.90;;;;;;4927631;28;28186;-68
2022/06/28 04:17:42;;;;;;;;;;;11.00;99.90;;;;;;4925546;28;32096;-68
2022/06/28 04:20:10;;;;;;;;;;;11.10;99.90;;;;;;4929550;28;27062;-68
2022/06/28 04:22:36;;;;;;;;;;;11.30;99.90;;;;;;4935085;28;33077;-68
2022/06/28 04:25:04;;;;;;;;;;;11.30;99.90;;;;;;4908997;28;32093;-68
2022/06/28 04:27:30;;;;;;;;;;;11.40;99.90;;;;;;4930121;28;32072;-68
2022/06/28 04:29:59;;;;;;;;;;;11.60;99.90;;;;;;4933578;28;27050;-68
2022/06/28 04:32:29;;;;;;;;;;;11.70;99.90;;;;;;4924696;28;45074;-67
2022/06/28 04:34:56;;;;;;;;;;;11.80;99.90;;;;;;4928811;28;34065;-68
2022/06/28 04:37:26;;;;;;;;;;;12.00;99.90;;;;;;4932545;28;37124;-68
2022/06/28 04:39:53;;;;;;;;;;;12.10;99.90;;;;;;4917965;28;67147;-68
2022/06/28 04:42:19;;;;;;;;;;;12.30;99.90;;;;;;4919680;28;35053;-68
2022/06/28 04:44:46;;;;;;;;;;;12.80;99.90;;;;;;4914837;28;61070;-68
2022/06/28 04:47:13;;;;;;;;;;;14.00;99.90;;;;;;4921450;28;26063;-67
2022/06/28 04:49:40;;;;;;;;;;;15.00;99.90;;;;;;4906725;28;80171;-69
2022/06/28 04:52:07;;;;;;;;;;;16.10;99.90;;;;;;4880517;28;44066;-68
2022/06/28 04:54:33;;;;;;;;;;;17.40;99.90;;;;;;4911563;28;35067;-66
2022/06/28 04:57:00;;;;;;;;;;;18.60;99.90;;;;;;4996352;28;25078;-66
2022/06/28 04:59:26;;;;;;;;;;;19.80;99.90;;;;;;5023899;28;19960;-69
2022/06/28 05:01:53;;;;;;;;;;;20.90;99.90;;;;;;5021686;28;19987;-65
2022/06/28 05:04:20;;;;;;;;;;;21.90;99.90;;;;;;5019598;28;20135;-65
2022/06/28 05:06:47;;;;;;;;;;;22.80;99.90;;;;;;5019646;28;19931;-66
2022/06/28 05:09:13;;;;;;;;;;;23.10;99.90;;;;;;5021339;28;19940;-66
2022/06/28 05:12:00;;;;;;;;;;;23.10;99.90;;;;;;4964351;28;31061;-65
2022/06/28 05:14:27;;;;;;;;;;;23.60;99.90;;;;;;5013699;28;25097;-64
2022/06/28 05:16:53;;;;;;;;;;;23.40;99.90;;;;;;5023579;28;20002;-65
2022/06/28 05:19:20;;;;;;;;;;;23.60;99.90;;;;;;5021199;28;19929;-65
2022/06/28 05:21:47;;;;;;;;;;;23.90;99.90;;;;;;5027697;28;19926;-65
2022/06/28 05:24:14;;;;;;;;;;;24.30;99.90;;;;;;5034266;28;19933;-66
2022/06/28 05:26:40;;;;;;;;;;;24.90;99.90;;;;;;5027616;28;20047;-65
2022/06/28 05:29:07;;;;;;;;;;;25.10;99.90;;;;;;5026438;28;19932;-65
2022/06/28 05:31:35;;;;;;;;;;;25.00;99.90;;;;;;4950397;28;32184;-65
2022/06/28 05:34:02;;;;;;;;;;;25.60;99.90;;;;;;4943569;28;28099;-65
2022/06/28 05:36:29;;;;;;;;;;;26.00;99.90;;;;;;4938952;28;27144;-65
2022/06/28 05:38:56;;;;;;;;;;;25.40;99.90;;;;;;4933229;28;26105;-66
2022/06/28 05:41:23;;;;;;;;;;;25.30;99.90;;;;;;4947714;28;29606;-66
2022/06/28 05:43:56;;;;;;;;;;;26.10;99.90;;;;;;4940645;28;25141;-65
2022/06/28 05:46:23;;;;;;;;;;;26.70;99.90;;;;;;4941659;28;26102;-66
2022/06/28 05:48:50;;;;;;;;;;;26.70;99.90;;;;;;4945509;28;29069;-66
2022/06/28 05:51:17;;;;;;;;;;;26.80;99.90;;;;;;4943822;28;30068;-66
2022/06/28 05:53:44;;;;;;;;;;;27.30;99.90;;;;;;4940644;28;27331;-66
2022/06/28 05:56:10;;;;;;;;;;;27.60;99.90;;;;;;4938706;28;28141;-66
2022/06/28 05:58:37;;;;;;;;;;;27.70;99.90;;;;;;4944663;28;29149;-65
2022/06/28 06:01:04;;;;;;;;;;;27.20;99.90;;;;;;4946399;28;27073;-66
2022/06/28 06:03:32;;;;;;;;;;;26.80;99.90;;;;;;4946422;28;25102;-65
2022/06/28 06:05:58;;;;;;;;;;;27.00;99.90;;;;;;5003153;28;25090;-66
2022/06/28 06:08:25;;;;;;;;;;;27.10;99.90;;;;;;5030522;28;20352;-65
2022/06/28 06:10:52;;;;;;;;;;;27.10;99.90;;;;;;4964375;28;26076;-66
2022/06/28 06:13:18;;;;;;;;;;;27.60;99.90;;;;;;4941243;28;26080;-66
2022/06/28 06:15:45;;;;;;;;;;;28.00;99.90;;;;;;4956328;28;28093;-66
2022/06/28 06:18:12;;;;;;;;;;;28.90;99.90;;;;;;4949653;28;27099;-66
2022/06/28 06:20:38;;;;;;;;;;;28.90;99.90;;;;;;4953249;28;28153;-66
2022/06/28 06:23:05;;;;;;;;;;;28.80;99.90;;;;;;4942651;28;31099;-66
2022/06/28 06:25:32;;;;;;;;;;;28.60;99.90;;;;;;4951403;28;25118;-67
2022/06/28 06:27:58;;;;;;;;;;;28.50;99.90;;;;;;4944987;28;33093;-66
2022/06/28 06:30:25;;;;;;;;;;;28.70;99.90;;;;;;4923510;28;30145;-66
2022/06/28 06:32:52;;;;;;;;;;;28.90;99.90;;;;;;4952289;28;29069;-66
2022/06/28 06:35:24;;;;;;;;;;;28.70;99.90;;;;;;4935627;28;28060;-66
2022/06/28 06:37:53;;;;;;;;;;;28.90;99.90;;;;;;4943556;28;27074;-66
2022/06/28 06:40:19;;;;;;;;;;;29.10;99.90;;;;;;4930935;28;29080;-66
2022/06/28 06:42:46;;;;;;;;;;;29.20;99.90;;;;;;4936182;28;25207;-66
2022/06/28 06:45:14;;;;;;;;;;;29.40;99.90;;;;;;4939254;28;26078;-66
2022/06/28 06:47:41;;;;;;;;;;;29.30;99.90;;;;;;4943739;28;25078;-66
2022/06/28 06:50:08;;;;;;;;;;;29.30;99.90;;;;;;4957444;28;27207;-67
2022/06/28 06:52:35;;;;;;;;;;;29.70;99.90;;;;;;4928462;28;29181;-69
2022/06/28 06:55:03;;;;;;;;;;;29.90;99.90;;;;;;4942204;28;26084;-66
2022/06/28 06:57:30;;;;;;;;;;;30.00;99.90;;;;;;4943842;28;28224;-59
2022/06/28 06:59:56;;;;;;;;;;;30.20;99.90;;;;;;4952575;28;26125;-59
2022/06/28 07:02:23;;;;;;;;;;;29.80;99.90;;;;;;4945583;28;26055;-62
2022/06/28 07:04:50;;;;;;;;;;;30.10;99.90;;;;;;4955565;28;29080;-63
2022/06/28 07:07:20;;;;;;;;;;;30.60;99.90;;;;;;4947010;28;29174;-63
2022/06/28 07:09:47;;;;;;;;;;;31.20;99.90;;;;;;4952767;28;27971;-63
2022/06/28 07:12:13;;;;;;;;;;;31.70;99.90;;;;;;4954079;28;25069;-63
2022/06/28 07:14:40;;;;;;;;;;;32.10;99.90;;;;;;4944721;28;27055;-63
2022/06/28 07:17:07;;;;;;;;;;;31.40;99.80;;;;;;4945708;28;25160;-63
2022/06/28 07:19:33;;;;;;;;;;;30.80;99.80;;;;;;4948570;28;31155;-64
2022/06/28 07:22:00;;;;;;;;;;;30.20;99.90;;;;;;4969412;28;25112;-62
2022/06/28 07:24:27;;;;;;;;;;;30.20;99.70;;;;;;4944173;28;26128;-63
2022/06/28 07:26:53;;;;;;;;;;;30.00;99.90;;;;;;4950009;28;25145;-63
2022/06/28 07:29:21;;;;;;;;;;;30.20;99.50;;;;;;4949215;28;27064;-63
2022/06/28 07:31:48;;;;;;;;;;;30.50;99.80;;;;;;4964682;28;25076;-63
2022/06/28 07:34:17;;;;;;;;;;;29.70;97.90;;;;;;4953180;28;25129;-62
2022/06/28 07:36:44;;;;;;;;;;;29.20;98.90;;;;;;4953197;28;27064;-63
2022/06/28 07:39:11;;;;;;;;;;;29.20;99.10;;;;;;4958811;28;25051;-63
2022/06/28 07:41:38;;;;;;;;;;;29.30;99.00;;;;;;4957030;28;27158;-62
2022/06/28 07:44:07;;;;;;;;;;;29.20;98.90;;;;;;4948917;28;28079;-64
2022/06/28 07:46:37;;;;;;;;;;;29.00;99.80;;;;;;4960139;28;27157;-64
2022/06/28 07:49:04;;;;;;;;;;;29.00;99.50;;;;;;4944360;28;25116;-63
2022/06/28 07:54:19;;;;;;;;;;;29.40;99.40;;;;;;4948449;28;26074;-64
2022/06/28 07:56:46;;;;;;;;;;;27.90;98.90;;;;;;4942470;28;26051;-63
2022/06/28 07:59:13;;;;;;;;;;;27.60;99.90;;;;;;4942776;28;25062;-64
2022/06/28 08:01:42;;;;;;;;;;;28.00;99.50;;;;;;4945471;28;26119;-63
2022/06/28 08:04:11;;;;;;;;;;;28.20;99.20;;;;;;4950065;28;27049;-64
2022/06/28 08:06:38;;;;;;;;;;;28.30;98.70;;;;;;4948266;28;25060;-63
2022/06/28 08:09:05;;;;;;;;;;;28.80;97.80;;;;;;4947994;28;29136;-64
2022/06/28 08:11:32;;;;;;;;;;;28.90;98.70;;;;;;4948694;28;29187;-64
2022/06/28 08:14:02;;;;;;;;;;;28.90;98.20;;;;;;4944450;28;28245;-63
2022/06/28 08:16:28;;;;;;;;;;;28.70;98.40;;;;;;4948668;28;28067;-63
2022/06/28 08:18:55;;;;;;;;;;;28.50;98.10;;;;;;4944285;28;25177;-63
2022/06/28 08:21:22;;;;;;;;;;;28.20;97.00;;;;;;4951321;28;28123;-64
2022/06/28 08:23:49;;;;;;;;;;;28.90;97.20;;;;;;4947197;28;27092;-64
2022/06/28 08:26:15;;;;;;;;;;;29.30;97.10;;;;;;4953726;28;29112;-64
2022/06/28 08:28:42;;;;;;;;;;;29.40;96.70;;;;;;4943630;28;25066;-63
2022/06/28 08:31:09;;;;;;;;;;;29.60;96.90;;;;;;4946105;28;26128;-65
2022/06/28 08:33:35;;;;;;;;;;;29.60;96.40;;;;;;4942609;28;27075;-64
2022/06/28 08:36:02;;;;;;;;;;;29.50;96.50;;;;;;4944714;28;25109;-63
2022/06/28 08:38:29;;;;;;;;;;;29.20;96.60;;;;;;4937539;28;29107;-64
2022/06/28 08:40:56;;;;;;;;;;;28.30;96.70;;;;;;4946345;28;25159;-64
2022/06/28 08:43:23;;;;;;;;;;;28.50;97.00;;;;;;4941405;28;28082;-65
2022/06/28 08:45:49;;;;;;;;;;;28.70;96.20;;;;;;4935633;28;28147;-64
2022/06/28 08:48:19;;;;;;;;;;;28.40;96.30;;;;;;4948417;28;28222;-64
2022/06/28 08:50:49;;;;;;;;;;;28.30;96.60;;;;;;4950625;28;27070;-63
2022/06/28 08:53:18;;;;;;;;;;;28.40;96.00;;;;;;4950116;28;27108;-63
2022/06/28 08:55:47;;;;;;;;;;;28.50;95.70;;;;;;4940230;28;27150;-64
2022/06/28 08:58:17;;;;;;;;;;;29.20;94.60;;;;;;4956700;28;29091;-64
2022/06/28 09:00:44;;;;;;;;;;;29.30;94.00;;;;;;4948922;28;29102;-63
2022/06/28 09:03:11;;;;;;;;;;;28.90;94.10;;;;;;4947281;28;26066;-63
2022/06/28 09:05:41;;;;;;;;;;;28.80;95.80;;;;;;4948838;28;29071;-65
2022/06/28 09:08:07;;;;;;;;;;;28.80;93.00;;;;;;4944023;28;26138;-60
2022/06/28 09:10:34;;;;;;;;;;;29.60;96.10;;;;;;4943167;28;27129;-60
2022/06/28 09:13:16;;;;;;;;;;;29.70;94.10;;;;;;4947304;28;26038;-61
2022/06/28 09:15:59;;;;;;;;;;;30.90;93.40;;;;;;4947156;28;27097;-60
2022/06/28 09:18:46;;;;;;;;;;;31.20;93.60;;;;;;4945448;28;26064;-61
2022/06/28 09:21:15;;;;;;;;;;;31.10;92.90;;;;;;4946084;28;27124;-61
2022/06/28 09:23:46;;;;;;;;;;;31.50;92.90;;;;;;4946312;28;29077;-61
2022/06/28 09:26:14;;;;;;;;;;;31.50;93.10;;;;;;4932440;28;26073;-61
2022/06/28 09:28:42;;;;;;;;;;;31.20;93.50;;;;;;4941477;28;25104;-60
2022/06/28 09:31:21;;;;;;;;;;;30.80;92.90;;;;;;4948280;28;27152;-60
2022/06/28 09:34:04;;;;;;;;;;;30.30;92.60;;;;;;4937679;28;25085;-61
2022/06/28 09:36:33;;;;;;;;;;;30.10;93.20;;;;;;4939235;28;28106;-61
2022/06/28 09:39:09;;;;;;;;;;;30.60;93.80;;;;;;4942907;28;27108;-61
2022/06/28 09:41:36;;;;;;;;;;;31.20;92.50;;;;;;4946004;28;29090;-61
2022/06/28 09:44:24;;;;;;;;;;;30.90;93.00;;;;;;4940244;28;26058;-61
2022/06/28 09:46:52;;;;;;;;;;;30.50;92.20;;;;;;4942456;28;30129;-61
2022/06/28 09:49:19;;;;;;;;;;;30.70;91.30;;;;;;4942596;28;27093;-61
2022/06/28 09:51:46;;;;;;;;;;;30.60;91.40;;;;;;4947822;28;26083;-61
2022/06/28 09:54:13;;;;;;;;;;;29.90;91.20;;;;;;4945199;28;26110;-61
2022/06/28 09:56:50;;;;;;;;;;;30.00;91.30;;;;;;4941715;28;27088;-61
2022/06/28 09:59:18;;;;;;;;;;;30.00;91.60;;;;;;4945602;28;27084;-61
2022/06/28 10:01:45;;;;;;;;;;;30.20;91.20;;;;;;4944503;28;27153;-61
2022/06/28 10:04:14;;;;;;;;;;;29.70;90.80;;;;;;4946256;28;25096;-61
2022/06/28 10:06:43;;;;;;;;;;;30.20;92.10;;;;;;4943964;28;26087;-61
2022/06/28 10:09:10;;;;;;;;;;;30.70;91.20;;;;;;4932916;28;27080;-61
2022/06/28 10:17:28;;;;;;;;;;;31.90;88.70;;;;;;4943365;28;25095;-61
2022/06/28 10:19:57;;;;;;;;;;;31.40;87.10;;;;;;4947634;28;25102;-61
2022/06/28 10:22:23;;;;;;;;;;;31.70;87.50;;;;;;4953218;28;25112;-61
2022/06/28 10:24:51;;;;;;;;;;;31.50;87.80;;;;;;4941124;28;25118;-61
2022/06/28 10:27:20;;;;;;;;;;;31.60;87.00;;;;;;4944472;28;26100;-62
2022/06/28 10:30:07;;;;;;;;;;;31.80;86.70;;;;;;4948515;28;28099;-62
2022/06/28 10:32:40;;;;;;;;;;;31.10;89.10;;;;;;4940503;28;25156;-62
2022/06/28 10:35:07;;;;;;;;;;;31.60;90.30;;;;;;4943142;28;25142;-62
2022/06/28 10:37:34;;;;;;;;;;;31.10;86.70;;;;;;4954051;28;25085;-62
2022/06/28 10:40:20;;;;;;;;;;;30.50;86.60;;;;;;4946026;28;29058;-61
2022/06/28 10:42:50;;;;;;;;;;;30.30;87.70;;;;;;4944185;28;27051;-62
2022/06/28 10:45:19;;;;;;;;;;;30.70;86.30;;;;;;4940781;28;25073;-60
2022/06/28 10:48:05;;;;;;;;;;;30.10;86.80;;;;;;4943732;28;25073;-61
2022/06/28 10:50:50;;;;;;;;;;;30.50;87.80;;;;;;4948382;28;28074;-60
2022/06/28 10:53:17;;;;;;;;;;;30.90;90.10;;;;;;4943265;28;26083;-61
2022/06/28 10:56:03;;;;;;;;;;;31.20;88.60;;;;;;4944434;28;29080;-60
2022/06/28 10:58:58;;;;;;;;;;;31.00;85.80;;;;;;4943895;28;26163;-60
2022/06/28 11:01:44;;;;;;;;;;;31.00;87.70;;;;;;4943308;28;29058;-60
2022/06/28 11:04:11;;;;;;;;;;;30.90;87.70;;;;;;4939295;28;28110;-60
2022/06/28 11:06:40;;;;;;;;;;;30.90;87.80;;;;;;4944580;28;30161;-60
2022/06/28 11:09:15;;;;;;;;;;;30.50;86.70;;;;;;4943125;28;32117;-60
2022/06/28 11:12:00;;;;;;;;;;;29.90;86.10;;;;;;4941696;28;26169;-60
2022/06/28 11:14:31;;;;;;;;;;;29.60;87.90;;;;;;4936758;28;28046;-60
2022/06/28 11:17:13;;;;;;;;;;;29.60;87.80;;;;;;4945613;28;29054;-60
2022/06/28 11:19:50;;;;;;;;;;;29.30;87.70;;;;;;5016284;28;25111;-61
2022/06/28 11:22:19;;;;;;;;;;;28.90;87.60;;;;;;4967771;28;25073;-60
2022/06/28 11:24:46;;;;;;;;;;;28.70;88.00;;;;;;5015137;28;25106;-60
2022/06/28 11:27:22;;;;;;;;;;;28.50;86.40;;;;;;5027255;28;20316;-60
2022/06/28 11:30:06;;;;;;;;;;;28.80;87.20;;;;;;5022658;28;20012;-60
2022/06/28 11:32:40;;;;;;;;;;;28.80;87.90;;;;;;5026472;28;20020;-60
2022/06/28 11:35:40;;;;;;;;;;;28.60;87.00;;;;;;5021492;28;19925;-60
2022/06/28 11:38:09;;;;;;;;;;;28.80;89.70;;;;;;5044240;28;19924;-61
2022/06/28 11:40:40;;;;;;;;;;;28.70;86.90;;;;;;5042257;28;19990;-60
2022/06/28 11:43:13;;;;;;;;;;;28.20;87.80;;;;;;5036462;28;19925;-60
2022/06/28 11:45:41;;;;;;;;;;;27.90;88.20;;;;;;5037839;28;19929;-60
2022/06/28 11:48:10;;;;;;;;;;;28.30;87.20;;;;;;5040019;28;19925;-60
2022/06/28 11:50:45;;;;;;;;;;;28.80;87.70;;;;;;5022035;28;19926;-60
2022/06/28 11:53:13;;;;;;;;;;;29.10;89.70;;;;;;5043401;28;19956;-61
2022/06/28 11:55:44;;;;;;;;;;;29.30;86.60;;;;;;5004132;28;27073;-60
2022/06/28 11:58:19;;;;;;;;;;;29.40;87.00;;;;;;4954942;28;33119;-61
2022/06/28 12:01:05;;;;;;;;;;;29.00;88.30;;;;;;4980600;28;25082;-60
2022/06/28 12:03:32;;;;;;;;;;;28.60;87.30;;;;;;5038284;28;19928;-61
2022/06/28 12:06:00;;;;;;;;;;;28.20;88.60;;;;;;4975952;28;31071;-60
2022/06/28 12:08:43;;;;;;;;;;;28.10;86.10;;;;;;4954596;28;28137;-60
2022/06/28 12:11:28;;;;;;;;;;;27.70;87.80;;;;;;4961187;28;27083;-60
2022/06/28 12:14:06;;;;;;;;;;;27.70;88.30;;;;;;4934407;28;28087;-60
2022/06/28 12:16:34;;;;;;;;;;;27.90;89.40;;;;;;4964455;28;25138;-60
2022/06/28 12:19:03;;;;;;;;;;;28.00;86.50;;;;;;5030159;28;19929;-60
2022/06/28 12:21:36;;;;;;;;;;;28.50;88.30;;;;;;5026112;28;20411;-60
2022/06/28 12:24:03;;;;;;;;;;;28.60;86.50;;;;;;5026097;28;20486;-60
2022/06/28 12:26:37;;;;;;;;;;;28.10;87.40;;;;;;5021269;28;19939;-60
2022/06/28 12:29:03;;;;;;;;;;;28.30;88.70;;;;;;5023387;28;20478;-60
2022/06/28 12:31:33;;;;;;;;;;;28.10;88.30;;;;;;5023607;28;19934;-60
2022/06/28 12:34:07;;;;;;;;;;;28.20;89.30;;;;;;5025790;28;20403;-60
2022/06/28 12:36:36;;;;;;;;;;;28.70;89.00;;;;;;5025652;28;19925;-60
2022/06/28 12:39:03;;;;;;;;;;;28.80;88.80;;;;;;5036332;28;19925;-60
2022/06/28 12:41:30;;;;;;;;;;;28.40;87.80;;;;;;5033833;28;20249;-60
2022/06/28 12:43:57;;;;;;;;;;;28.20;88.30;;;;;;5049284;28;19936;-60
2022/06/28 12:46:23;;;;;;;;;;;28.20;88.80;;;;;;5031230;28;19933;-60
2022/06/28 12:48:50;;;;;;;;;;;27.90;88.60;;;;;;5038855;28;19929;-61
2022/06/28 12:51:17;;;;;;;;;;;27.80;88.60;;;;;;5035180;28;19925;-60
2022/06/28 12:53:44;;;;;;;;;;;27.80;90.00;;;;;;5036477;28;19932;-60
2022/06/28 12:56:11;;;;;;;;;;;27.60;89.60;;;;;;5028988;28;20020;-63
2022/06/28 12:58:37;;;;;;;;;;;27.50;90.60;;;;;;5035764;28;19929;-62
2022/06/28 13:01:04;;;;;;;;;;;27.70;89.20;;;;;;5037653;28;19975;-63
2022/06/28 13:03:31;;;;;;;;;;;27.80;88.90;;;;;;5026061;28;20531;-65
2022/06/28 13:05:58;;;;;;;;;;;27.60;88.90;;;;;;5029088;28;19929;-67
2022/06/28 13:08:26;;;;;;;;;;;27.70;89.90;;;;;;5037758;28;20450;-66
2022/06/28 13:10:53;;;;;;;;;;;28.00;89.70;;;;;;5025776;28;19933;-66
2022/06/28 13:13:20;;;;;;;;;;;27.90;89.60;;;;;;5026942;28;19925;-66
2022/06/28 13:15:47;;;;;;;;;;;28.00;89.50;;;;;;5029676;28;19933;-67
2022/06/28 13:18:14;;;;;;;;;;;27.80;90.10;;;;;;5031041;28;19925;-67
2022/06/28 13:20:41;;;;;;;;;;;27.70;90.10;;;;;;5029402;28;19968;-68
2022/06/28 13:23:08;;;;;;;;;;;27.50;90.20;;;;;;5011016;28;20012;-67
2022/06/28 13:25:36;;;;;;;;;;;27.30;90.80;;;;;;5030728;28;19968;-68
2022/06/28 13:28:02;;;;;;;;;;;27.20;89.60;;;;;;5027369;28;19955;-68
2022/06/28 13:30:29;;;;;;;;;;;27.30;90.10;;;;;;5029385;28;20722;-69
2022/06/28 13:32:56;;;;;;;;;;;27.40;88.40;;;;;;5031414;28;19932;-69
2022/06/28 13:35:23;;;;;;;;;;;27.60;89.10;;;;;;5029631;28;19925;-67
2022/06/28 13:37:49;;;;;;;;;;;27.70;89.50;;;;;;5037697;28;20031;-69
2022/06/28 13:40:16;;;;;;;;;;;27.80;88.40;;;;;;5029967;28;19964;-68
2022/06/28 13:42:42;;;;;;;;;;;28.20;88.80;;;;;;5029397;28;19925;-68
2022/06/28 13:45:09;;;;;;;;;;;28.30;88.20;;;;;;5025769;28;19955;-68
2022/06/28 13:47:40;;;;;;;;;;;28.70;89.20;;;;;;5028914;28;19932;-68
2022/06/28 13:50:06;;;;;;;;;;;29.20;88.40;;;;;;5029621;28;19925;-69
2022/06/28 13:52:33;;;;;;;;;;;29.40;89.20;;;;;;5029120;28;19939;-69
2022/06/28 13:55:04;;;;;;;;;;;29.70;89.50;;;;;;5030700;28;19931;-69
2022/06/28 13:57:31;;;;;;;;;;;30.00;87.10;;;;;;5030421;28;19932;-69
2022/06/28 13:59:57;;;;;;;;;;;30.10;88.70;;;;;;5022689;28;19926;-68
2022/06/28 14:02:27;;;;;;;;;;;30.00;86.20;;;;;;5026586;28;19972;-69
2022/06/28 14:04:56;;;;;;;;;;;30.20;88.20;;;;;;5029140;28;20024;-69
2022/06/28 14:07:23;;;;;;;;;;;30.30;86.50;;;;;;5028354;28;19932;-69
2022/06/28 14:09:50;;;;;;;;;;;30.90;86.20;;;;;;5026512;28;20016;-69
2022/06/28 14:12:23;;;;;;;;;;;31.20;85.50;;;;;;5028550;28;19925;-69
2022/06/28 14:14:49;;;;;;;;;;;30.90;85.20;;;;;;5027718;28;19932;-67
2022/06/28 14:17:16;;;;;;;;;;;30.90;84.60;;;;;;5030978;28;19947;-69
2022/06/28 14:19:42;;;;;;;;;;;30.80;84.30;;;;;;5033671;28;19925;-69
2022/06/28 14:22:09;;;;;;;;;;;30.50;84.20;;;;;;5027378;28;19925;-69
2022/06/28 14:24:38;;;;;;;;;;;30.90;85.90;;;;;;5026973;28;20002;-70
2022/06/28 14:27:05;;;;;;;;;;;31.90;86.10;;;;;;5028167;28;19932;-69
2022/06/28 14:29:33;;;;;;;;;;;32.50;81.60;;;;;;5023464;28;20020;-69
2022/06/28 14:31:59;;;;;;;;;;;32.10;83.50;;;;;;5029771;28;19933;-70
2022/06/28 14:34:26;;;;;;;;;;;32.60;82.40;;;;;;5023766;28;19929;-72
2022/06/28 14:36:53;;;;;;;;;;;32.60;81.50;;;;;;5026654;28;19925;-70
2022/06/28 14:39:20;;;;;;;;;;;31.50;82.20;;;;;;5029099;28;19929;-70